sensor_id;sensor_type;location;lat;lon;timestamp;temperature;humidity
25923;DHT22;13725;51.170;4.442;2023-04-25T00:01:38;10.20;99.90
25923;DHT22;13725;51.170;4.442;2023-04-25T00:04:04;10.00;99.90
25923;DHT22;13725;51.170;4.442;2023-04-25T00:06:32;10.00;99.90
25923;DHT22;13725;51.170;4.442;2023-04-25T00:08:58;9.90;99.90
25923;DHT22;13725;51.170;4.442;2023-04-25T00:11:24;9.90;99.90
25923;DHT22;13725;51.170;4.442;2023-04-25T00:13:50;9.90;99.90
25923;DHT22;13725;51.170;4.442;2023-04-25T00:16:19;9.80;99.90
25923;DHT22;13725;51.170;4.442;2023-04-25T00:18:45;9.80;99.90
25923;DHT22;13725;51.170;4.442;2023-04-25T00:21:17;9.60;99.90
25923;DHT22;13725;51.170;4.442;2023-04-25T00:23:43;9.70;99.90
25923;DHT22;13725;51.170;4.442;2023-04-25T00:26:11;9.70;99.90
25923;DHT22;13725;51.170;4.442;2023-04-25T00:28:37;9.80;99.90
25923;DHT22;13725;51.170;4.442;2023-04-25T00:31:03;9.80;99.90
25923;DHT22;13725;51.170;4.442;2023-04-25T00:33:29;9.80;99.90
25923;DHT22;13725;51.170;4.442;2023-04-25T00:35:55;9.90;99.90
25923;DHT22;13725;51.170;4.442;2023-04-25T00:38:22;9.90;99.90
25923;DHT22;13725;51.170;4.442;2023-04-25T00:40:48;10.00;99.90
25923;DHT22;13725;51.170;4.442;2023-04-25T00:43:14;10.00;99.90
25923;DHT22;13725;51.170;4.442;2023-04-25T00:45:40;9.90;99.90
25923;DHT22;13725;51.170;4.442;2023-04-25T00:48:06;9.90;99.90
25923;DHT22;13725;51.170;4.442;2023-04-25T00:50:36;9.90;99.90
25923;DHT22;13725;51.170;4.442;2023-04-25T00:53:02;10.00;99.90
25923;DHT22;13725;51.170;4.442;2023-04-25T00:55:29;10.00;99.90
25923;DHT22;13725;51.170;4.442;2023-04-25T00:57:57;10.00;99.90
25923;DHT22;13725;51.170;4.442;2023-04-25T01:00:23;10.00;99.90
25923;DHT22;13725;51.170;4.442;2023-04-25T01:02:49;10.10;99.90
25923;DHT22;13725;51.170;4.442;2023-04-25T01:05:15;10.10;99.90
25923;DHT22;13725;51.170;4.442;2023-04-25T01:07:41;10.00;99.90
25923;DHT22;13725;51.170;4.442;2023-04-25T01:10:08;10.00;99.90
25923;DHT22;13725;51.170;4.442;2023-04-25T01:12:34;9.90;99.90
25923;DHT22;13725;51.170;4.442;2023-04-25T01:15:00;10.00;99.90
25923;DHT22;13725;51.170;4.442;2023-04-25T01:17:26;9.90;99.90
25923;DHT22;13725;51.170;4.442;2023-04-25T01:19:53;9.90;99.90
25923;DHT22;13725;51.170;4.442;2023-04-25T01:22:19;9.80;99.90
25923;DHT22;13725;51.170;4.442;2023-04-25T01:24:45;9.90;99.90
25923;DHT22;13725;51.170;4.442;2023-04-25T01:27:11;9.90;99.90
25923;DHT22;13725;51.170;4.442;2023-04-25T01:29:38;9.80;99.90
25923;DHT22;13725;51.170;4.442;2023-04-25T01:32:05;9.90;99.90
25923;DHT22;13725;51.170;4.442;2023-04-25T01:34:31;9.90;99.90
25923;DHT22;13725;51.170;4.442;2023-04-25T01:36:59;9.80;99.90
25923;DHT22;13725;51.170;4.442;2023-04-25T01:39:28;9.80;99.90
25923;DHT22;13725;51.170;4.442;2023-04-25T01:41:54;9.80;99.90
25923;DHT22;13725;51.170;4.442;2023-04-25T01:44:20;9.90;99.90
25923;DHT22;13725;51.170;4.442;2023-04-25T01:46:46;9.90;99.90
25923;DHT22;13725;51.170;4.442;2023-04-25T01:49:12;9.80;99.90
25923;DHT22;13725;51.170;4.442;2023-04-25T01:51:38;9.80;99.90
25923;DHT22;13725;51.170;4.442;2023-04-25T01:54:04;9.80;99.90
25923;DHT22;13725;51.170;4.442;2023-04-25T01:56:31;9.70;99.90
25923;DHT22;13725;51.170;4.442;2023-04-25T01:58:57;9.70;99.90
25923;DHT22;13725;51.170;4.442;2023-04-25T02:01:42;9.60;99.90
25923;DHT22;13725;51.170;4.442;2023-04-25T02:04:24;9.60;99.90
25923;DHT22;13725;51.170;4.442;2023-04-25T02:06:51;9.60;99.90
25923;DHT22;13725;51.170;4.442;2023-04-25T02:09:16;9.60;99.90
25923;DHT22;13725;51.170;4.442;2023-04-25T02:11:51;9.60;99.90
25923;DHT22;13725;51.170;4.442;2023-04-25T02:14:52;9.60;99.90
25923;DHT22;13725;51.170;4.442;2023-04-25T02:17:33;9.60;99.90
25923;DHT22;13725;51.170;4.442;2023-04-25T02:19:59;9.60;99.90
25923;DHT22;13725;51.170;4.442;2023-04-25T02:22:25;9.60;99.90
25923;DHT22;13725;51.170;4.442;2023-04-25T02:24:53;9.60;99.90
25923;DHT22;13725;51.170;4.442;2023-04-25T02:27:20;9.50;99.90
25923;DHT22;13725;51.170;4.442;2023-04-25T02:29:45;9.40;99.90
25923;DHT22;13725;51.170;4.442;2023-04-25T02:32:11;9.30;99.90
25923;DHT22;13725;51.170;4.442;2023-04-25T02:34:37;9.10;99.90
25923;DHT22;13725;51.170;4.442;2023-04-25T02:37:03;8.70;99.90
25923;DHT22;13725;51.170;4.442;2023-04-25T02:39:28;8.60;99.90
25923;DHT22;13725;51.170;4.442;2023-04-25T02:41:55;8.60;99.90
25923;DHT22;13725;51.170;4.442;2023-04-25T02:44:21;8.60;99.90
25923;DHT22;13725;51.170;4.442;2023-04-25T02:46:46;8.50;99.90
25923;DHT22;13725;51.170;4.442;2023-04-25T02:49:12;8.50;99.90
25923;DHT22;13725;51.170;4.442;2023-04-25T02:51:38;8.50;99.90
25923;DHT22;13725;51.170;4.442;2023-04-25T02:54:04;8.50;99.90
25923;DHT22;13725;51.170;4.442;2023-04-25T02:56:34;8.50;99.90
25923;DHT22;13725;51.170;4.442;2023-04-25T02:59:00;8.50;99.90
25923;DHT22;13725;51.170;4.442;2023-04-25T03:01:26;8.50;99.90
25923;DHT22;13725;51.170;4.442;2023-04-25T03:03:52;8.50;99.90
25923;DHT22;13725;51.170;4.442;2023-04-25T03:06:17;8.50;99.90
25923;DHT22;13725;51.170;4.442;2023-04-25T03:08:43;8.50;99.90
25923;DHT22;13725;51.170;4.442;2023-04-25T03:11:10;8.50;99.90
25923;DHT22;13725;51.170;4.442;2023-04-25T03:13:36;8.50;99.90
25923;DHT22;13725;51.170;4.442;2023-04-25T03:16:01;8.50;99.90
25923;DHT22;13725;51.170;4.442;2023-04-25T03:18:29;8.50;99.90
25923;DHT22;13725;51.170;4.442;2023-04-25T03:20:55;8.50;99.90
25923;DHT22;13725;51.170;4.442;2023-04-25T03:23:21;8.40;99.90
25923;DHT22;13725;51.170;4.442;2023-04-25T03:25:46;8.40;99.90
25923;DHT22;13725;51.170;4.442;2023-04-25T03:28:13;8.40;99.90
25923;DHT22;13725;51.170;4.442;2023-04-25T03:30:39;8.40;99.90
25923;DHT22;13725;51.170;4.442;2023-04-25T03:33:05;8.40;99.90
25923;DHT22;13725;51.170;4.442;2023-04-25T03:35:31;8.40;99.90
25923;DHT22;13725;51.170;4.442;2023-04-25T03:37:57;8.40;99.90
25923;DHT22;13725;51.170;4.442;2023-04-25T03:40:28;8.40;99.90
25923;DHT22;13725;51.170;4.442;2023-04-25T03:43:29;8.40;99.90
25923;DHT22;13725;51.170;4.442;2023-04-25T03:46:00;8.40;99.90
25923;DHT22;13725;51.170;4.442;2023-04-25T03:48:26;8.30;99.90
25923;DHT22;13725;51.170;4.442;2023-04-25T03:50:54;8.40;99.90
25923;DHT22;13725;51.170;4.442;2023-04-25T03:53:20;8.40;99.90
25923;DHT22;13725;51.170;4.442;2023-04-25T03:56:04;8.40;99.90
25923;DHT22;13725;51.170;4.442;2023-04-25T03:58:33;8.40;99.90
25923;DHT22;13725;51.170;4.442;2023-04-25T04:00:59;8.30;99.90
25923;DHT22;13725;51.170;4.442;2023-04-25T04:03:24;8.30;99.90
25923;DHT22;13725;51.170;4.442;2023-04-25T04:05:51;8.20;99.90
25923;DHT22;13725;51.170;4.442;2023-04-25T04:08:17;8.20;99.90
25923;DHT22;13725;51.170;4.442;2023-04-25T04:10:42;8.10;99.90
25923;DHT22;13725;51.170;4.442;2023-04-25T04:13:08;8.00;99.90
25923;DHT22;13725;51.170;4.442;2023-04-25T04:15:34;7.90;99.90
25923;DHT22;13725;51.170;4.442;2023-04-25T04:18:00;7.90;99.90
25923;DHT22;13725;51.170;4.442;2023-04-25T04:20:29;7.90;99.90
25923;DHT22;13725;51.170;4.442;2023-04-25T04:22:56;7.90;99.90
25923;DHT22;13725;51.170;4.442;2023-04-25T04:25:23;7.90;99.90
25923;DHT22;13725;51.170;4.442;2023-04-25T04:28:10;7.90;99.90
25923;DHT22;13725;51.170;4.442;2023-04-25T04:30:54;7.90;99.90
25923;DHT22;13725;51.170;4.442;2023-04-25T04:33:21;7.90;99.90
25923;DHT22;13725;51.170;4.442;2023-04-25T04:35:54;7.90;99.90
25923;DHT22;13725;51.170;4.442;2023-04-25T04:38:21;7.90;99.90
25923;DHT22;13725;51.170;4.442;2023-04-25T04:40:47;8.00;99.90
25923;DHT22;13725;51.170;4.442;2023-04-25T04:43:31;7.90;99.90
25923;DHT22;13725;51.170;4.442;2023-04-25T04:46:06;7.90;99.90
25923;DHT22;13725;51.170;4.442;2023-04-25T04:48:50;8.00;99.90
25923;DHT22;13725;51.170;4.442;2023-04-25T04:51:23;8.00;99.90
25923;DHT22;13725;51.170;4.442;2023-04-25T04:54:02;8.10;99.90
25923;DHT22;13725;51.170;4.442;2023-04-25T04:56:34;8.10;99.90
25923;DHT22;13725;51.170;4.442;2023-04-25T04:59:19;8.10;99.90
25923;DHT22;13725;51.170;4.442;2023-04-25T05:01:58;8.20;99.90
25923;DHT22;13725;51.170;4.442;2023-04-25T05:04:42;8.20;99.90
25923;DHT22;13725;51.170;4.442;2023-04-25T05:07:28;8.20;99.90
25923;DHT22;13725;51.170;4.442;2023-04-25T05:10:25;8.20;99.90
25923;DHT22;13725;51.170;4.442;2023-04-25T05:13:10;8.20;99.90
25923;DHT22;13725;51.170;4.442;2023-04-25T05:16:05;8.30;99.90
25923;DHT22;13725;51.170;4.442;2023-04-25T05:19:06;8.30;99.90
25923;DHT22;13725;51.170;4.442;2023-04-25T05:21:43;8.30;99.90
25923;DHT22;13725;51.170;4.442;2023-04-25T05:24:34;8.40;99.90
25923;DHT22;13725;51.170;4.442;2023-04-25T05:27:32;8.40;99.90
25923;DHT22;13725;51.170;4.442;2023-04-25T05:30:16;8.40;99.90
25923;DHT22;13725;51.170;4.442;2023-04-25T05:33:11;8.50;99.90
25923;DHT22;13725;51.170;4.442;2023-04-25T05:35:38;8.50;99.90
25923;DHT22;13725;51.170;4.442;2023-04-25T05:38:04;8.50;99.90
25923;DHT22;13725;51.170;4.442;2023-04-25T05:40:50;8.60;99.90
25923;DHT22;13725;51.170;4.442;2023-04-25T05:43:34;8.70;99.90
25923;DHT22;13725;51.170;4.442;2023-04-25T05:46:20;8.80;99.90
25923;DHT22;13725;51.170;4.442;2023-04-25T05:49:04;8.90;99.90
25923;DHT22;13725;51.170;4.442;2023-04-25T05:51:49;9.00;99.90
25923;DHT22;13725;51.170;4.442;2023-04-25T05:54:33;9.00;99.90
25923;DHT22;13725;51.170;4.442;2023-04-25T05:56:59;9.10;99.90
25923;DHT22;13725;51.170;4.442;2023-04-25T05:59:25;9.20;99.90
25923;DHT22;13725;51.170;4.442;2023-04-25T06:01:51;9.30;99.90
25923;DHT22;13725;51.170;4.442;2023-04-25T06:04:17;9.40;99.90
25923;DHT22;13725;51.170;4.442;2023-04-25T06:06:43;9.50;99.90
25923;DHT22;13725;51.170;4.442;2023-04-25T06:09:09;9.70;99.90
25923;DHT22;13725;51.170;4.442;2023-04-25T06:11:35;9.80;99.90
25923;DHT22;13725;51.170;4.442;2023-04-25T06:14:02;10.00;99.90
25923;DHT22;13725;51.170;4.442;2023-04-25T06:16:29;10.20;99.90
25923;DHT22;13725;51.170;4.442;2023-04-25T06:18:54;10.20;99.90
25923;DHT22;13725;51.170;4.442;2023-04-25T06:21:20;10.30;99.90
25923;DHT22;13725;51.170;4.442;2023-04-25T06:23:47;10.30;99.90
25923;DHT22;13725;51.170;4.442;2023-04-25T06:26:19;10.30;99.90
25923;DHT22;13725;51.170;4.442;2023-04-25T06:28:46;10.40;99.90
25923;DHT22;13725;51.170;4.442;2023-04-25T06:31:12;10.60;99.90
25923;DHT22;13725;51.170;4.442;2023-04-25T06:33:39;10.80;99.90
25923;DHT22;13725;51.170;4.442;2023-04-25T06:36:05;10.80;99.90
25923;DHT22;13725;51.170;4.442;2023-04-25T06:38:31;10.70;99.90
25923;DHT22;13725;51.170;4.442;2023-04-25T06:40:57;10.50;99.90
25923;DHT22;13725;51.170;4.442;2023-04-25T06:43:24;10.20;99.90
25923;DHT22;13725;51.170;4.442;2023-04-25T06:46:02;10.00;99.90
25923;DHT22;13725;51.170;4.442;2023-04-25T06:48:31;9.80;99.90
25923;DHT22;13725;51.170;4.442;2023-04-25T06:50:58;9.80;99.90
25923;DHT22;13725;51.170;4.442;2023-04-25T06:53:24;9.90;99.90
25923;DHT22;13725;51.170;4.442;2023-04-25T06:55:56;9.90;99.90
25923;DHT22;13725;51.170;4.442;2023-04-25T06:58:23;9.90;99.90
25923;DHT22;13725;51.170;4.442;2023-04-25T07:00:59;10.00;99.90
25923;DHT22;13725;51.170;4.442;2023-04-25T07:03:25;10.00;99.90
25923;DHT22;13725;51.170;4.442;2023-04-25T07:05:57;9.90;99.90
25923;DHT22;13725;51.170;4.442;2023-04-25T07:08:23;10.00;99.90
25923;DHT22;13725;51.170;4.442;2023-04-25T07:10:49;10.00;99.90
25923;DHT22;13725;51.170;4.442;2023-04-25T07:13:15;10.20;99.90
25923;DHT22;13725;51.170;4.442;2023-04-25T07:15:41;10.40;99.90
25923;DHT22;13725;51.170;4.442;2023-04-25T07:18:08;10.60;99.90
25923;DHT22;13725;51.170;4.442;2023-04-25T07:20:35;10.70;99.90
25923;DHT22;13725;51.170;4.442;2023-04-25T07:23:01;10.70;99.90
25923;DHT22;13725;51.170;4.442;2023-04-25T07:25:27;10.60;99.90
25923;DHT22;13725;51.170;4.442;2023-04-25T07:27:54;10.40;99.90
25923;DHT22;13725;51.170;4.442;2023-04-25T07:30:21;10.50;99.90
25923;DHT22;13725;51.170;4.442;2023-04-25T07:32:47;10.60;99.90
25923;DHT22;13725;51.170;4.442;2023-04-25T07:35:13;10.80;99.90
25923;DHT22;13725;51.170;4.442;2023-04-25T07:37:40;11.20;99.90
25923;DHT22;13725;51.170;4.442;2023-04-25T07:40:14;11.60;99.90
25923;DHT22;13725;51.170;4.442;2023-04-25T07:42:54;12.30;99.90
25923;DHT22;13725;51.170;4.442;2023-04-25T07:45:32;13.90;99.90
25923;DHT22;13725;51.170;4.442;2023-04-25T07:47:58;16.80;99.90
25923;DHT22;13725;51.170;4.442;2023-04-25T07:50:25;19.30;99.90
25923;DHT22;13725;51.170;4.442;2023-04-25T07:52:53;21.20;99.90
25923;DHT22;13725;51.170;4.442;2023-04-25T07:55:27;22.00;99.90
25923;DHT22;13725;51.170;4.442;2023-04-25T07:58:08;21.80;99.90
25923;DHT22;13725;51.170;4.442;2023-04-25T08:00:36;23.30;95.20
25923;DHT22;13725;51.170;4.442;2023-04-25T08:03:23;24.30;92.20
25923;DHT22;13725;51.170;4.442;2023-04-25T08:05:49;24.60;86.90
25923;DHT22;13725;51.170;4.442;2023-04-25T08:08:17;25.40;84.70
25923;DHT22;13725;51.170;4.442;2023-04-25T08:10:43;26.50;80.40
25923;DHT22;13725;51.170;4.442;2023-04-25T08:13:09;25.80;78.60
25923;DHT22;13725;51.170;4.442;2023-04-25T08:15:35;24.20;80.60
25923;DHT22;13725;51.170;4.442;2023-04-25T08:18:01;21.80;83.90
25923;DHT22;13725;51.170;4.442;2023-04-25T08:20:28;19.20;90.00
25923;DHT22;13725;51.170;4.442;2023-04-25T08:22:56;17.40;93.30
25923;DHT22;13725;51.170;4.442;2023-04-25T08:25:41;15.60;98.90
25923;DHT22;13725;51.170;4.442;2023-04-25T08:28:09;14.70;99.90
25923;DHT22;13725;51.170;4.442;2023-04-25T08:30:36;13.60;99.90
25923;DHT22;13725;51.170;4.442;2023-04-25T08:33:03;13.20;99.90
25923;DHT22;13725;51.170;4.442;2023-04-25T08:35:56;12.90;99.90
25923;DHT22;13725;51.170;4.442;2023-04-25T08:38:23;15.00;99.90
25923;DHT22;13725;51.170;4.442;2023-04-25T08:40:50;18.40;99.90
25923;DHT22;13725;51.170;4.442;2023-04-25T08:43:19;21.60;95.50
25923;DHT22;13725;51.170;4.442;2023-04-25T08:45:48;23.20;89.80
25923;DHT22;13725;51.170;4.442;2023-04-25T08:48:29;24.70;83.60
25923;DHT22;13725;51.170;4.442;2023-04-25T08:50:57;26.60;77.70
25923;DHT22;13725;51.170;4.442;2023-04-25T08:53:29;27.10;73.00
25923;DHT22;13725;51.170;4.442;2023-04-25T08:56:00;29.00;70.40
25923;DHT22;13725;51.170;4.442;2023-04-25T08:58:30;28.90;67.40
25923;DHT22;13725;51.170;4.442;2023-04-25T09:00:57;27.40;65.10
25923;DHT22;13725;51.170;4.442;2023-04-25T09:03:26;25.70;66.30
25923;DHT22;13725;51.170;4.442;2023-04-25T09:05:52;25.10;68.60
25923;DHT22;13725;51.170;4.442;2023-04-25T09:08:20;26.20;67.90
25923;DHT22;13725;51.170;4.442;2023-04-25T09:10:46;26.30;66.40
25923;DHT22;13725;51.170;4.442;2023-04-25T09:13:24;25.00;66.50
25923;DHT22;13725;51.170;4.442;2023-04-25T09:16:09;26.30;67.40
25923;DHT22;13725;51.170;4.442;2023-04-25T09:18:52;26.80;65.20
25923;DHT22;13725;51.170;4.442;2023-04-25T09:21:22;28.70;64.60
25923;DHT22;13725;51.170;4.442;2023-04-25T09:23:48;28.70;62.00
25923;DHT22;13725;51.170;4.442;2023-04-25T09:26:18;30.20;60.70
25923;DHT22;13725;51.170;4.442;2023-04-25T09:28:45;30.50;58.10
25923;DHT22;13725;51.170;4.442;2023-04-25T09:31:24;29.30;59.20
25923;DHT22;13725;51.170;4.442;2023-04-25T09:33:59;27.30;59.40
25923;DHT22;13725;51.170;4.442;2023-04-25T09:36:27;25.50;60.50
25923;DHT22;13725;51.170;4.442;2023-04-25T09:39:15;23.70;64.90
25923;DHT22;13725;51.170;4.442;2023-04-25T09:41:43;21.70;69.70
25923;DHT22;13725;51.170;4.442;2023-04-25T09:44:12;20.80;71.50
25923;DHT22;13725;51.170;4.442;2023-04-25T09:46:40;20.80;73.00
25923;DHT22;13725;51.170;4.442;2023-04-25T09:49:16;20.50;70.30
25923;DHT22;13725;51.170;4.442;2023-04-25T09:51:57;19.50;69.90
25923;DHT22;13725;51.170;4.442;2023-04-25T09:54:26;18.40;71.90
25923;DHT22;13725;51.170;4.442;2023-04-25T09:57:12;17.70;74.10
25923;DHT22;13725;51.170;4.442;2023-04-25T09:59:43;16.70;78.30
25923;DHT22;13725;51.170;4.442;2023-04-25T10:02:11;16.30;82.50
25923;DHT22;13725;51.170;4.442;2023-04-25T10:04:38;15.80;86.20
25923;DHT22;13725;51.170;4.442;2023-04-25T10:07:11;15.70;89.90
25923;DHT22;13725;51.170;4.442;2023-04-25T10:09:39;15.50;91.90
25923;DHT22;13725;51.170;4.442;2023-04-25T10:12:07;15.70;92.40
25923;DHT22;13725;51.170;4.442;2023-04-25T10:14:34;15.70;92.10
25923;DHT22;13725;51.170;4.442;2023-04-25T10:17:01;15.80;92.30
25923;DHT22;13725;51.170;4.442;2023-04-25T10:19:28;15.60;92.70
25923;DHT22;13725;51.170;4.442;2023-04-25T10:22:14;15.80;93.10
25923;DHT22;13725;51.170;4.442;2023-04-25T10:24:43;15.80;92.90
25923;DHT22;13725;51.170;4.442;2023-04-25T10:27:09;15.70;93.50
25923;DHT22;13725;51.170;4.442;2023-04-25T10:29:36;15.80;94.00
25923;DHT22;13725;51.170;4.442;2023-04-25T10:32:02;15.10;95.30
25923;DHT22;13725;51.170;4.442;2023-04-25T10:34:42;14.90;96.40
25923;DHT22;13725;51.170;4.442;2023-04-25T10:37:11;14.80;97.80
25923;DHT22;13725;51.170;4.442;2023-04-25T10:39:39;14.60;97.40
25923;DHT22;13725;51.170;4.442;2023-04-25T10:42:07;14.80;97.60
25923;DHT22;13725;51.170;4.442;2023-04-25T10:44:34;15.00;96.20
25923;DHT22;13725;51.170;4.442;2023-04-25T10:47:01;15.50;96.70
25923;DHT22;13725;51.170;4.442;2023-04-25T10:52:18;16.20;94.90
25923;DHT22;13725;51.170;4.442;2023-04-25T10:57:39;18.40;90.10
25923;DHT22;13725;51.170;4.442;2023-04-25T11:00:11;20.40;81.60
25923;DHT22;13725;51.170;4.442;2023-04-25T11:02:45;22.80;78.20
25923;DHT22;13725;51.170;4.442;2023-04-25T11:05:36;25.80;70.10
25923;DHT22;13725;51.170;4.442;2023-04-25T11:08:11;26.40;66.40
25923;DHT22;13725;51.170;4.442;2023-04-25T11:10:37;25.60;63.90
25923;DHT22;13725;51.170;4.442;2023-04-25T11:13:03;24.50;64.90
25923;DHT22;13725;51.170;4.442;2023-04-25T11:15:29;24.40;66.50
25923;DHT22;13725;51.170;4.442;2023-04-25T11:17:56;25.60;65.90
25923;DHT22;13725;51.170;4.442;2023-04-25T11:20:25;27.10;63.90
25923;DHT22;13725;51.170;4.442;2023-04-25T11:22:51;28.00;58.80
25923;DHT22;13725;51.170;4.442;2023-04-25T11:25:17;28.30;58.60
25923;DHT22;13725;51.170;4.442;2023-04-25T11:27:57;29.00;57.90
25923;DHT22;13725;51.170;4.442;2023-04-25T11:30:24;30.10;56.60
25923;DHT22;13725;51.170;4.442;2023-04-25T11:32:51;30.80;55.70
25923;DHT22;13725;51.170;4.442;2023-04-25T11:35:19;31.20;55.70
25923;DHT22;13725;51.170;4.442;2023-04-25T11:37:45;31.90;53.70
25923;DHT22;13725;51.170;4.442;2023-04-25T11:40:11;32.30;52.60
25923;DHT22;13725;51.170;4.442;2023-04-25T11:42:38;31.90;50.40
25923;DHT22;13725;51.170;4.442;2023-04-25T11:45:05;31.90;51.70
25923;DHT22;13725;51.170;4.442;2023-04-25T11:47:33;32.20;50.60
25923;DHT22;13725;51.170;4.442;2023-04-25T11:50:03;31.10;49.80
25923;DHT22;13725;51.170;4.442;2023-04-25T11:52:46;28.70;52.60
25923;DHT22;13725;51.170;4.442;2023-04-25T11:55:17;28.00;53.70
25923;DHT22;13725;51.170;4.442;2023-04-25T11:57:45;28.20;54.10
25923;DHT22;13725;51.170;4.442;2023-04-25T12:00:16;27.10;54.70
25923;DHT22;13725;51.170;4.442;2023-04-25T12:02:50;24.90;57.20
25923;DHT22;13725;51.170;4.442;2023-04-25T12:05:16;23.30;60.40
25923;DHT22;13725;51.170;4.442;2023-04-25T12:07:42;22.10;62.90
25923;DHT22;13725;51.170;4.442;2023-04-25T12:10:10;21.00;64.40
25923;DHT22;13725;51.170;4.442;2023-04-25T12:12:37;20.80;65.40
25923;DHT22;13725;51.170;4.442;2023-04-25T12:17:53;22.60;64.00
25923;DHT22;13725;51.170;4.442;2023-04-25T12:20:23;23.20;61.30
25923;DHT22;13725;51.170;4.442;2023-04-25T12:22:50;23.70;60.90
25923;DHT22;13725;51.170;4.442;2023-04-25T12:25:39;23.70;60.70
25923;DHT22;13725;51.170;4.442;2023-04-25T12:28:14;23.70;60.40
25923;DHT22;13725;51.170;4.442;2023-04-25T12:31:06;24.10;61.20
25923;DHT22;13725;51.170;4.442;2023-04-25T12:33:36;26.20;58.30
25923;DHT22;13725;51.170;4.442;2023-04-25T12:36:03;25.40;58.70
25923;DHT22;13725;51.170;4.442;2023-04-25T12:38:39;25.90;57.50
25923;DHT22;13725;51.170;4.442;2023-04-25T12:41:06;26.70;57.30
25923;DHT22;13725;51.170;4.442;2023-04-25T12:43:32;27.40;56.50
25923;DHT22;13725;51.170;4.442;2023-04-25T12:45:57;27.00;56.50
25923;DHT22;13725;51.170;4.442;2023-04-25T12:48:23;26.00;57.10
25923;DHT22;13725;51.170;4.442;2023-04-25T12:50:50;24.50;58.80
25923;DHT22;13725;51.170;4.442;2023-04-25T12:53:22;23.70;60.30
25923;DHT22;13725;51.170;4.442;2023-04-25T12:55:50;22.60;60.40
25923;DHT22;13725;51.170;4.442;2023-04-25T12:58:18;22.00;62.90
25923;DHT22;13725;51.170;4.442;2023-04-25T13:00:44;21.90;64.70
25923;DHT22;13725;51.170;4.442;2023-04-25T13:03:10;21.80;65.10
25923;DHT22;13725;51.170;4.442;2023-04-25T13:05:38;21.70;65.00
25923;DHT22;13725;51.170;4.442;2023-04-25T13:08:04;21.30;66.00
25923;DHT22;13725;51.170;4.442;2023-04-25T13:10:30;20.70;66.30
25923;DHT22;13725;51.170;4.442;2023-04-25T13:12:56;20.60;68.10
25923;DHT22;13725;51.170;4.442;2023-04-25T13:15:22;21.50;66.20
25923;DHT22;13725;51.170;4.442;2023-04-25T13:17:48;22.50;64.20
25923;DHT22;13725;51.170;4.442;2023-04-25T13:20:14;24.00;61.40
25923;DHT22;13725;51.170;4.442;2023-04-25T13:22:42;25.60;59.60
25923;DHT22;13725;51.170;4.442;2023-04-25T13:25:08;25.10;56.60
25923;DHT22;13725;51.170;4.442;2023-04-25T13:27:36;24.80;58.90
25923;DHT22;13725;51.170;4.442;2023-04-25T13:30:03;25.30;59.10
25923;DHT22;13725;51.170;4.442;2023-04-25T13:32:34;26.30;58.00
25923;DHT22;13725;51.170;4.442;2023-04-25T13:35:02;26.10;56.10
25923;DHT22;13725;51.170;4.442;2023-04-25T13:37:27;25.60;56.90
25923;DHT22;13725;51.170;4.442;2023-04-25T13:39:55;25.10;58.50
25923;DHT22;13725;51.170;4.442;2023-04-25T13:42:23;24.80;58.80
25923;DHT22;13725;51.170;4.442;2023-04-25T13:44:48;24.30;60.60
25923;DHT22;13725;51.170;4.442;2023-04-25T13:47:14;24.50;60.00
25923;DHT22;13725;51.170;4.442;2023-04-25T13:49:40;25.70;58.70
25923;DHT22;13725;51.170;4.442;2023-04-25T13:52:06;25.60;57.30
25923;DHT22;13725;51.170;4.442;2023-04-25T13:54:31;26.00;57.30
25923;DHT22;13725;51.170;4.442;2023-04-25T13:56:57;26.10;58.30
25923;DHT22;13725;51.170;4.442;2023-04-25T13:59:25;25.30;58.50
25923;DHT22;13725;51.170;4.442;2023-04-25T14:01:54;24.40;59.40
25923;DHT22;13725;51.170;4.442;2023-04-25T14:04:19;23.70;60.70
25923;DHT22;13725;51.170;4.442;2023-04-25T14:06:45;22.50;61.40
25923;DHT22;13725;51.170;4.442;2023-04-25T14:09:11;21.50;62.50
25923;DHT22;13725;51.170;4.442;2023-04-25T14:11:38;20.80;64.20
25923;DHT22;13725;51.170;4.442;2023-04-25T14:14:04;20.20;65.80
25923;DHT22;13725;51.170;4.442;2023-04-25T14:16:30;19.70;66.90
25923;DHT22;13725;51.170;4.442;2023-04-25T14:19:00;19.30;66.90
25923;DHT22;13725;51.170;4.442;2023-04-25T14:21:27;19.00;69.10
25923;DHT22;13725;51.170;4.442;2023-04-25T14:23:54;18.70;68.30
25923;DHT22;13725;51.170;4.442;2023-04-25T14:26:19;18.10;67.90
25923;DHT22;13725;51.170;4.442;2023-04-25T14:28:45;17.60;70.00
25923;DHT22;13725;51.170;4.442;2023-04-25T14:31:11;17.50;71.70
25923;DHT22;13725;51.170;4.442;2023-04-25T14:33:37;17.40;71.80
25923;DHT22;13725;51.170;4.442;2023-04-25T14:36:07;17.10;72.50
25923;DHT22;13725;51.170;4.442;2023-04-25T14:38:33;16.80;74.60
25923;DHT22;13725;51.170;4.442;2023-04-25T14:40:58;16.60;75.90
25923;DHT22;13725;51.170;4.442;2023-04-25T14:43:24;16.40;76.50
25923;DHT22;13725;51.170;4.442;2023-04-25T14:45:50;16.10;77.00
25923;DHT22;13725;51.170;4.442;2023-04-25T14:48:17;15.90;79.60
25923;DHT22;13725;51.170;4.442;2023-04-25T14:50:45;15.90;78.30
25923;DHT22;13725;51.170;4.442;2023-04-25T14:53:11;15.80;78.70
25923;DHT22;13725;51.170;4.442;2023-04-25T14:55:38;15.50;78.90
25923;DHT22;13725;51.170;4.442;2023-04-25T14:58:03;15.40;82.20
25923;DHT22;13725;51.170;4.442;2023-04-25T15:00:29;15.40;81.70
25923;DHT22;13725;51.170;4.442;2023-04-25T15:02:57;15.30;81.60
25923;DHT22;13725;51.170;4.442;2023-04-25T15:05:24;15.10;81.00
25923;DHT22;13725;51.170;4.442;2023-04-25T15:07:49;15.00;83.70
25923;DHT22;13725;51.170;4.442;2023-04-25T15:10:17;15.10;85.80
25923;DHT22;13725;51.170;4.442;2023-04-25T15:12:43;15.40;86.10
25923;DHT22;13725;51.170;4.442;2023-04-25T15:15:10;15.60;84.80
25923;DHT22;13725;51.170;4.442;2023-04-25T15:17:42;15.80;85.20
25923;DHT22;13725;51.170;4.442;2023-04-25T15:20:12;16.00;85.00
25923;DHT22;13725;51.170;4.442;2023-04-25T15:22:41;15.70;82.90
25923;DHT22;13725;51.170;4.442;2023-04-25T15:25:08;15.50;83.20
25923;DHT22;13725;51.170;4.442;2023-04-25T15:27:38;15.30;83.00
25923;DHT22;13725;51.170;4.442;2023-04-25T15:30:08;15.20;85.30
25923;DHT22;13725;51.170;4.442;2023-04-25T15:32:36;15.00;84.40
25923;DHT22;13725;51.170;4.442;2023-04-25T15:35:04;14.90;88.90
25923;DHT22;13725;51.170;4.442;2023-04-25T15:37:31;14.90;89.10
25923;DHT22;13725;51.170;4.442;2023-04-25T15:40:02;15.00;87.70
25923;DHT22;13725;51.170;4.442;2023-04-25T15:42:39;14.90;89.10
25923;DHT22;13725;51.170;4.442;2023-04-25T15:45:06;15.00;88.40
25923;DHT22;13725;51.170;4.442;2023-04-25T15:47:35;15.10;88.10
25923;DHT22;13725;51.170;4.442;2023-04-25T15:50:07;15.10;88.60
25923;DHT22;13725;51.170;4.442;2023-04-25T15:52:35;15.00;89.40
25923;DHT22;13725;51.170;4.442;2023-04-25T15:55:01;14.90;89.80
25923;DHT22;13725;51.170;4.442;2023-04-25T15:57:27;14.80;88.90
25923;DHT22;13725;51.170;4.442;2023-04-25T15:59:52;14.60;89.50
25923;DHT22;13725;51.170;4.442;2023-04-25T16:02:18;14.60;90.00